Jefferson City, Tennessee
Current Conditions -  °F | °C
As of 5:55 AM on Friday 28 Nov 2014 (Local Time) from KMOR Reporting Station
Scattered Clouds Scattered Clouds  
Wind Chill: 23°   Ceiling: Unl
Heat Index: 28°   Visibility: 10mi
Dew Point: 21°   Wind: 5mph
Humidity: 74%   Direction: 350°N
Pressure: 30.36"   Gusts: NA
Location:  36.13°N, 83.49°W
Report Text: KMOR 281055Z AUTO 35004KT 10SM SCT034 M02/M06 A3036 RMK
Loading
Personal Weather Stations






























Interactive Weather Map New forecast layout! Learn more

10-Day Weather Forecast

Advertisements
Track Severe Weather on mobile